createdAt,value
2023-03-07T00:04:51.787Z,5.00
2023-03-07T00:09:53.240Z,7.85
2023-03-07T00:14:55.893Z,10.35
2023-03-07T00:19:57.420Z,12.20
2023-03-07T00:24:59.449Z,6.05
2023-03-07T00:30:02.226Z,12.73
2023-03-07T00:35:04.009Z,10.82
2023-03-07T00:40:07.501Z,12.75
2023-03-07T00:45:09.324Z,12.27
2023-03-07T00:50:11.091Z,12.43
2023-03-07T00:55:12.630Z,13.27
2023-03-07T01:00:14.415Z,16.67
2023-03-07T01:05:15.890Z,22.20
2023-03-07T01:10:17.785Z,10.13
2023-03-07T01:15:19.332Z,13.38
2023-03-07T01:20:20.806Z,16.40
2023-03-07T01:25:22.312Z,10.55
2023-03-07T01:30:24.934Z,12.00
2023-03-07T01:35:26.469Z,15.20
2023-03-07T01:40:27.996Z,14.65
2023-03-07T01:45:35.289Z,11.55
2023-03-07T01:50:36.807Z,18.27
2023-03-07T01:55:38.850Z,10.68
2023-03-07T02:00:42.178Z,15.30
2023-03-07T02:06:05.788Z,16.88
2023-03-07T02:11:07.736Z,11.85
2023-03-07T02:16:09.421Z,10.93
2023-03-07T02:21:34.623Z,5.80
2023-03-07T02:26:47.652Z,12.35
2023-03-07T02:31:49.342Z,7.78
2023-03-07T02:36:56.658Z,7.68
2023-03-07T02:42:02.964Z,10.25
2023-03-07T02:47:08.852Z,11.95
2023-03-07T02:52:10.631Z,7.50
2023-03-07T02:57:12.145Z,14.13
2023-03-07T03:02:13.761Z,13.77
2023-03-07T03:07:15.343Z,9.40
2023-03-07T03:12:16.835Z,10.80
2023-03-07T03:17:18.632Z,10.90
2023-03-07T03:22:20.624Z,9.07
2023-03-07T03:27:22.102Z,8.48
2023-03-07T03:32:23.715Z,8.57
2023-03-07T03:37:25.379Z,8.85
2023-03-07T03:42:26.896Z,11.70
2023-03-07T03:47:28.351Z,9.85
2023-03-07T03:52:29.828Z,6.68
2023-03-07T03:57:31.341Z,11.15
2023-03-07T04:02:33.294Z,15.90
2023-03-07T04:07:34.904Z,8.45
2023-03-07T04:12:37.046Z,13.82
2023-03-07T04:17:38.535Z,17.70
2023-03-07T04:22:40.360Z,12.88
2023-03-07T04:27:41.831Z,16.88
2023-03-07T04:32:43.481Z,13.07
2023-03-07T04:37:45.104Z,10.98
2023-03-07T04:42:46.592Z,14.02
2023-03-07T04:47:48.103Z,18.98
2023-03-07T04:52:50.473Z,10.82
2023-03-07T04:57:52.109Z,18.33
2023-03-07T05:02:57.768Z,15.00
2023-03-07T05:07:59.238Z,9.35
2023-03-07T05:13:01.280Z,15.70
2023-03-07T05:18:02.967Z,15.18
2023-03-07T05:23:04.472Z,11.45
2023-03-07T05:28:06.025Z,17.20
2023-03-07T05:33:07.573Z,16.10
2023-03-07T05:38:09.332Z,7.00
2023-03-07T05:43:10.844Z,9.32
2023-03-07T05:48:12.371Z,12.13
2023-03-07T05:53:13.883Z,10.52
2023-03-07T05:58:15.362Z,10.40
2023-03-07T06:03:16.804Z,5.25
2023-03-07T06:08:18.343Z,9.15
2023-03-07T06:13:24.472Z,7.82
2023-03-07T06:18:26.716Z,11.18
2023-03-07T06:23:30.823Z,11.00
2023-03-07T06:28:33.005Z,18.88
2023-03-07T06:33:34.673Z,13.85
2023-03-07T06:38:36.456Z,16.98
2023-03-07T06:43:38.051Z,13.63
2023-03-07T06:48:39.585Z,13.20
2023-03-07T06:53:41.219Z,11.30
2023-03-07T06:58:42.748Z,11.98
2023-03-07T07:03:44.560Z,9.68
2023-03-07T07:08:46.048Z,7.18
2023-03-07T07:13:47.606Z,10.05
2023-03-07T07:18:52.242Z,11.98
2023-03-07T07:23:56.608Z,11.95
2023-03-07T07:28:58.155Z,12.82
2023-03-07T07:34:00.172Z,12.48
2023-03-07T07:39:06.442Z,14.38
2023-03-07T07:44:08.017Z,14.10
2023-03-07T07:49:09.574Z,15.18
2023-03-07T07:54:11.482Z,18.88
2023-03-07T07:59:13.294Z,15.00
2023-03-07T08:04:14.778Z,17.60
2023-03-07T08:09:16.517Z,14.63
2023-03-07T08:14:18.087Z,13.32
2023-03-07T08:19:19.581Z,12.27
2023-03-07T08:24:29.304Z,12.15
2023-03-07T08:29:37.424Z,10.60
2023-03-07T08:34:38.886Z,21.70
2023-03-07T08:39:40.417Z,14.93
2023-03-07T08:44:41.904Z,11.55
2023-03-07T08:49:43.427Z,12.10
2023-03-07T08:54:44.966Z,5.45
2023-03-07T08:59:46.536Z,5.43
2023-03-07T09:04:48.173Z,6.00
2023-03-07T09:09:50.005Z,4.90
2023-03-07T09:14:54.492Z,8.20
2023-03-07T09:19:56.671Z,3.58
2023-03-07T09:24:58.182Z,7.80
2023-03-07T09:30:00.226Z,5.03
2023-03-07T09:35:01.702Z,8.73
2023-03-07T09:40:09.298Z,6.28
2023-03-07T09:45:40.183Z,9.13
2023-03-07T09:51:10.358Z,14.07
2023-03-07T09:56:21.894Z,6.90
2023-03-07T10:01:27.669Z,9.93
2023-03-07T10:06:39.496Z,6.70
2023-03-07T10:12:05.899Z,11.43
2023-03-07T10:17:26.205Z,8.48
2023-03-07T10:22:48.765Z,8.27
2023-03-07T10:27:55.470Z,11.13
2023-03-07T10:33:01.133Z,9.32
2023-03-07T10:38:14.983Z,8.85
2023-03-07T10:43:28.449Z,9.60
2023-03-07T10:48:31.633Z,7.03
2023-03-07T10:53:36.519Z,11.38
2023-03-07T10:58:38.176Z,12.30
2023-03-07T11:03:53.470Z,13.68
2023-03-07T11:08:56.296Z,8.88
2023-03-07T11:14:06.671Z,11.98
2023-03-07T11:19:26.615Z,9.77
2023-03-07T11:24:31.055Z,14.95
2023-03-07T11:29:33.797Z,11.07
2023-03-07T11:34:59.362Z,14.10
2023-03-07T11:40:23.078Z,14.57
2023-03-07T11:45:43.239Z,10.07
2023-03-07T11:50:53.396Z,16.45
2023-03-07T11:56:38.512Z,9.23
2023-03-07T12:01:55.572Z,8.82
2023-03-07T12:07:35.747Z,9.32
2023-03-07T12:12:48.164Z,11.07
2023-03-07T12:18:22.508Z,9.20
2023-03-07T12:23:42.259Z,5.85
2023-03-07T12:28:57.728Z,8.05
2023-03-07T12:34:11.941Z,5.25
2023-03-07T12:39:45.380Z,7.03
2023-03-07T12:44:52.887Z,11.07
2023-03-07T12:50:25.802Z,4.05
2023-03-07T12:55:41.307Z,7.57
2023-03-07T13:00:54.575Z,6.40
2023-03-07T13:05:56.718Z,9.48
2023-03-07T13:10:58.535Z,7.22
2023-03-07T13:16:05.539Z,9.00
2023-03-07T13:21:31.828Z,5.17
2023-03-07T13:26:33.619Z,6.88
2023-03-07T13:31:39.383Z,3.90
2023-03-07T13:36:40.871Z,4.68
2023-03-07T13:41:48.633Z,4.68
2023-03-07T13:52:20.234Z,10.52
2023-03-07T13:57:29.110Z,9.82
2023-03-07T14:02:32.049Z,7.15
2023-03-07T14:07:37.209Z,10.50
2023-03-07T14:13:06.401Z,5.72
2023-03-07T14:18:26.564Z,6.30
2023-03-07T14:23:43.452Z,7.15
2023-03-07T14:29:08.114Z,6.90
2023-03-07T14:34:36.191Z,4.30
2023-03-07T14:39:49.246Z,4.00
2023-03-07T14:45:17.915Z,2.53
2023-03-07T14:50:26.937Z,2.95
2023-03-07T14:55:35.751Z,2.90
2023-03-07T15:00:37.289Z,2.88
2023-03-07T15:11:33.304Z,3.72
2023-03-07T15:16:45.865Z,2.92
2023-03-07T15:21:52.880Z,4.32
2023-03-07T15:26:55.614Z,2.93
2023-03-07T15:32:02.748Z,1.92
2023-03-07T15:37:24.679Z,4.97
2023-03-07T15:42:26.616Z,5.45
2023-03-07T15:47:31.543Z,2.75
2023-03-07T15:52:36.675Z,3.75
2023-03-07T15:57:48.980Z,4.07
2023-03-07T16:02:51.117Z,4.43
2023-03-07T16:07:54.838Z,3.47
2023-03-07T16:12:57.314Z,2.25
2023-03-07T16:17:58.891Z,5.45
2023-03-07T16:23:00.379Z,1.77
2023-03-07T16:28:01.957Z,1.20
2023-03-07T16:33:03.506Z,3.92
2023-03-07T16:38:05.423Z,1.75
2023-03-07T16:43:28.114Z,1.90
2023-03-07T16:48:29.786Z,4.00
2023-03-07T16:53:31.316Z,1.33
2023-03-07T16:58:35.294Z,3.50
2023-03-07T17:03:36.807Z,3.95
2023-03-07T17:08:38.331Z,5.68
2023-03-07T17:13:39.877Z,7.97
2023-03-07T17:18:41.449Z,4.95
2023-03-07T17:23:44.971Z,6.15
2023-03-07T17:28:46.637Z,4.95
2023-03-07T17:33:48.115Z,5.15
2023-03-07T17:38:49.660Z,4.25
2023-03-07T17:43:52.348Z,5.10
2023-03-07T17:48:53.828Z,3.63
2023-03-07T17:53:56.189Z,5.55
2023-03-07T17:59:01.443Z,5.40
2023-03-07T18:04:06.026Z,4.07
2023-03-07T18:09:08.058Z,5.65
2023-03-07T18:14:11.272Z,7.20
2023-03-07T18:19:25.454Z,2.83
2023-03-07T18:24:29.832Z,9.00
2023-03-07T18:29:32.000Z,8.13
2023-03-07T18:34:33.524Z,10.63
2023-03-07T18:39:36.059Z,5.20
2023-03-07T18:44:41.580Z,5.68
2023-03-07T18:49:43.266Z,5.80
2023-03-07T18:54:48.227Z,4.55
2023-03-07T18:59:51.079Z,47.38
2023-03-07T19:04:53.976Z,78.50
2023-03-07T19:09:55.522Z,101.40
2023-03-07T19:14:57.001Z,74.32
2023-03-07T19:20:00.121Z,15.90
2023-03-07T19:25:01.717Z,10.98
2023-03-07T19:30:03.387Z,4.82
2023-03-07T19:35:05.263Z,5.63
2023-03-07T19:40:07.637Z,5.57
2023-03-07T19:45:09.407Z,7.90
2023-03-07T19:50:11.679Z,3.53
2023-03-07T19:55:13.228Z,2.92
2023-03-07T20:00:15.495Z,5.05
2023-03-07T20:05:17.184Z,9.75
2023-03-07T20:10:18.838Z,42.53
2023-03-07T20:15:20.308Z,97.18
2023-03-07T20:20:21.766Z,76.40
2023-03-07T20:25:24.032Z,27.98
2023-03-07T20:30:25.585Z,36.42
2023-03-07T20:35:27.147Z,14.70
2023-03-07T20:40:28.697Z,11.50
2023-03-07T20:45:30.288Z,15.13
2023-03-07T20:50:31.807Z,6.43
2023-03-07T20:55:33.504Z,8.65
2023-03-07T21:00:34.995Z,8.20
2023-03-07T21:05:36.530Z,3.53
2023-03-07T21:10:38.060Z,3.78
2023-03-07T21:15:42.635Z,3.20
2023-03-07T21:20:44.133Z,6.22
2023-03-07T21:25:45.807Z,4.63
2023-03-07T21:30:49.437Z,4.70
2023-03-07T21:35:51.117Z,3.75
2023-03-07T21:40:55.714Z,4.20
2023-03-07T21:45:57.292Z,5.57
2023-03-07T21:50:58.969Z,5.25
2023-03-07T21:56:17.189Z,6.75
2023-03-07T22:01:25.746Z,7.32
2023-03-07T22:06:27.599Z,7.35
2023-03-07T22:11:29.157Z,6.05
2023-03-07T22:16:30.784Z,6.05
2023-03-07T22:21:33.059Z,6.75
2023-03-07T22:26:34.627Z,6.38
2023-03-07T22:31:36.177Z,7.15
2023-03-07T22:36:37.751Z,6.57
2023-03-07T22:41:39.265Z,8.93
2023-03-07T22:46:41.037Z,6.20
2023-03-07T22:51:43.011Z,10.27
2023-03-07T22:56:44.684Z,8.02
2023-03-07T23:01:46.277Z,11.05
2023-03-07T23:06:47.781Z,5.50
2023-03-07T23:11:49.344Z,5.55
2023-03-07T23:16:50.872Z,9.43
2023-03-07T23:21:52.399Z,4.68
2023-03-07T23:26:53.892Z,3.35
2023-03-07T23:31:55.413Z,4.78
2023-03-07T23:36:56.969Z,4.47
2023-03-07T23:41:58.462Z,4.93
2023-03-07T23:47:00.129Z,7.07
2023-03-07T23:52:01.592Z,2.78
2023-03-07T23:57:03.141Z,8.02
